sensor_id;sensor_type;location;lat;lon;timestamp;P1;durP1;ratioP1;P2;durP2;ratioP2
11827;SDS011;5971;49.646;8.568;2022-09-09T00:02:40;3.58;;;1.88;;
11827;SDS011;5971;49.646;8.568;2022-09-09T00:05:55;3.05;;;1.20;;
11827;SDS011;5971;49.646;8.568;2022-09-09T00:09:19;2.70;;;1.25;;
11827;SDS011;5971;49.646;8.568;2022-09-09T00:16:08;3.22;;;1.42;;
11827;SDS011;5971;49.646;8.568;2022-09-09T00:25:14;6.15;;;1.30;;
11827;SDS011;5971;49.646;8.568;2022-09-09T00:28:18;3.58;;;1.20;;
11827;SDS011;5971;49.646;8.568;2022-09-09T00:31:20;3.03;;;1.20;;
11827;SDS011;5971;49.646;8.568;2022-09-09T00:34:24;4.38;;;1.35;;
11827;SDS011;5971;49.646;8.568;2022-09-09T00:37:28;4.88;;;1.25;;
11827;SDS011;5971;49.646;8.568;2022-09-09T00:40:32;4.13;;;1.67;;
11827;SDS011;5971;49.646;8.568;2022-09-09T00:43:37;2.40;;;1.27;;
11827;SDS011;5971;49.646;8.568;2022-09-09T00:59:04;3.08;;;1.05;;
11827;SDS011;5971;49.646;8.568;2022-09-09T01:02:13;2.20;;;1.10;;
11827;SDS011;5971;49.646;8.568;2022-09-09T01:15:12;3.40;;;1.20;;
11827;SDS011;5971;49.646;8.568;2022-09-09T01:18:16;2.30;;;1.10;;
11827;SDS011;5971;49.646;8.568;2022-09-09T01:21:22;4.43;;;1.17;;
11827;SDS011;5971;49.646;8.568;2022-09-09T01:24:31;3.38;;;1.50;;
11827;SDS011;5971;49.646;8.568;2022-09-09T01:27:36;3.40;;;1.27;;
11827;SDS011;5971;49.646;8.568;2022-09-09T01:30:38;3.30;;;1.50;;
11827;SDS011;5971;49.646;8.568;2022-09-09T01:33:40;3.95;;;1.60;;
11827;SDS011;5971;49.646;8.568;2022-09-09T01:36:46;4.00;;;1.33;;
11827;SDS011;5971;49.646;8.568;2022-09-09T01:39:48;6.03;;;1.40;;
11827;SDS011;5971;49.646;8.568;2022-09-09T01:42:50;2.75;;;1.42;;
11827;SDS011;5971;49.646;8.568;2022-09-09T01:45:53;3.70;;;1.40;;
11827;SDS011;5971;49.646;8.568;2022-09-09T01:48:55;3.67;;;1.33;;
11827;SDS011;5971;49.646;8.568;2022-09-09T01:51:57;2.30;;;1.42;;
11827;SDS011;5971;49.646;8.568;2022-09-09T01:54:58;4.28;;;1.58;;
11827;SDS011;5971;49.646;8.568;2022-09-09T01:58:07;3.33;;;1.60;;
11827;SDS011;5971;49.646;8.568;2022-09-09T02:04:23;2.17;;;1.30;;
11827;SDS011;5971;49.646;8.568;2022-09-09T02:10:36;2.58;;;1.25;;
11827;SDS011;5971;49.646;8.568;2022-09-09T02:13:39;3.13;;;1.58;;
11827;SDS011;5971;49.646;8.568;2022-09-09T02:16:47;2.30;;;1.20;;
11827;SDS011;5971;49.646;8.568;2022-09-09T02:19:51;2.20;;;1.23;;
11827;SDS011;5971;49.646;8.568;2022-09-09T02:22:54;3.00;;;1.50;;
11827;SDS011;5971;49.646;8.568;2022-09-09T02:25:57;4.72;;;1.52;;
11827;SDS011;5971;49.646;8.568;2022-09-09T02:29:00;4.40;;;1.40;;
11827;SDS011;5971;49.646;8.568;2022-09-09T02:32:03;2.90;;;1.33;;
11827;SDS011;5971;49.646;8.568;2022-09-09T02:35:10;2.20;;;1.30;;
11827;SDS011;5971;49.646;8.568;2022-09-09T02:38:13;3.88;;;1.27;;
11827;SDS011;5971;49.646;8.568;2022-09-09T02:41:17;2.92;;;1.38;;
11827;SDS011;5971;49.646;8.568;2022-09-09T02:44:19;3.83;;;1.45;;
11827;SDS011;5971;49.646;8.568;2022-09-09T02:47:42;3.15;;;1.40;;
11827;SDS011;5971;49.646;8.568;2022-09-09T02:57:27;3.25;;;1.30;;
11827;SDS011;5971;49.646;8.568;2022-09-09T03:00:29;2.20;;;1.23;;
11827;SDS011;5971;49.646;8.568;2022-09-09T03:03:31;4.70;;;1.60;;
11827;SDS011;5971;49.646;8.568;2022-09-09T03:06:32;3.35;;;1.58;;
11827;SDS011;5971;49.646;8.568;2022-09-09T03:09:33;2.88;;;1.35;;
11827;SDS011;5971;49.646;8.568;2022-09-09T03:12:35;5.05;;;1.70;;
11827;SDS011;5971;49.646;8.568;2022-09-09T03:15:36;2.10;;;1.20;;
11827;SDS011;5971;49.646;8.568;2022-09-09T03:18:38;3.97;;;1.50;;
11827;SDS011;5971;49.646;8.568;2022-09-09T03:21:39;2.75;;;1.27;;
11827;SDS011;5971;49.646;8.568;2022-09-09T03:24:40;4.07;;;1.52;;
11827;SDS011;5971;49.646;8.568;2022-09-09T03:27:42;4.20;;;1.33;;
11827;SDS011;5971;49.646;8.568;2022-09-09T03:30:43;3.70;;;1.42;;
11827;SDS011;5971;49.646;8.568;2022-09-09T03:33:44;3.58;;;1.60;;
11827;SDS011;5971;49.646;8.568;2022-09-09T03:36:46;3.67;;;1.60;;
11827;SDS011;5971;49.646;8.568;2022-09-09T03:39:49;2.10;;;1.17;;
11827;SDS011;5971;49.646;8.568;2022-09-09T03:42:51;3.85;;;1.52;;
11827;SDS011;5971;49.646;8.568;2022-09-09T03:45:52;4.57;;;1.40;;
11827;SDS011;5971;49.646;8.568;2022-09-09T03:48:54;3.50;;;1.35;;
11827;SDS011;5971;49.646;8.568;2022-09-09T03:51:55;3.17;;;1.30;;
11827;SDS011;5971;49.646;8.568;2022-09-09T03:54:58;3.67;;;1.80;;
11827;SDS011;5971;49.646;8.568;2022-09-09T03:57:59;3.00;;;1.42;;
11827;SDS011;5971;49.646;8.568;2022-09-09T04:01:05;2.40;;;1.30;;
11827;SDS011;5971;49.646;8.568;2022-09-09T04:04:06;3.47;;;1.38;;
11827;SDS011;5971;49.646;8.568;2022-09-09T04:07:08;2.80;;;1.30;;
11827;SDS011;5971;49.646;8.568;2022-09-09T04:10:10;3.78;;;1.42;;
11827;SDS011;5971;49.646;8.568;2022-09-09T04:13:11;5.53;;;1.40;;
11827;SDS011;5971;49.646;8.568;2022-09-09T04:16:13;2.95;;;1.50;;
11827;SDS011;5971;49.646;8.568;2022-09-09T04:19:15;3.15;;;1.60;;
11827;SDS011;5971;49.646;8.568;2022-09-09T04:22:17;3.97;;;1.25;;
11827;SDS011;5971;49.646;8.568;2022-09-09T04:25:18;3.28;;;1.42;;
11827;SDS011;5971;49.646;8.568;2022-09-09T04:28:20;4.55;;;1.70;;
11827;SDS011;5971;49.646;8.568;2022-09-09T04:31:22;4.03;;;1.40;;
11827;SDS011;5971;49.646;8.568;2022-09-09T04:34:26;3.20;;;1.33;;
11827;SDS011;5971;49.646;8.568;2022-09-09T04:37:28;2.85;;;1.17;;
11827;SDS011;5971;49.646;8.568;2022-09-09T04:40:29;3.60;;;1.35;;
11827;SDS011;5971;49.646;8.568;2022-09-09T04:43:31;3.22;;;1.40;;
11827;SDS011;5971;49.646;8.568;2022-09-09T04:46:32;4.55;;;1.42;;
11827;SDS011;5971;49.646;8.568;2022-09-09T04:49:35;3.08;;;1.40;;
11827;SDS011;5971;49.646;8.568;2022-09-09T04:52:37;3.92;;;1.15;;
11827;SDS011;5971;49.646;8.568;2022-09-09T04:55:38;3.47;;;1.23;;
11827;SDS011;5971;49.646;8.568;2022-09-09T04:58:40;2.20;;;1.10;;
11827;SDS011;5971;49.646;8.568;2022-09-09T05:01:43;2.80;;;1.10;;
11827;SDS011;5971;49.646;8.568;2022-09-09T05:04:44;3.63;;;1.20;;
11827;SDS011;5971;49.646;8.568;2022-09-09T05:07:45;1.52;;;1.02;;
11827;SDS011;5971;49.646;8.568;2022-09-09T05:10:48;2.65;;;0.90;;
11827;SDS011;5971;49.646;8.568;2022-09-09T05:13:49;3.45;;;1.25;;
11827;SDS011;5971;49.646;8.568;2022-09-09T05:16:52;2.35;;;1.20;;
11827;SDS011;5971;49.646;8.568;2022-09-09T05:19:53;3.42;;;1.20;;
11827;SDS011;5971;49.646;8.568;2022-09-09T05:22:55;3.22;;;1.20;;
11827;SDS011;5971;49.646;8.568;2022-09-09T05:25:58;2.42;;;1.25;;
11827;SDS011;5971;49.646;8.568;2022-09-09T05:28:59;3.40;;;1.00;;
11827;SDS011;5971;49.646;8.568;2022-09-09T05:32:01;3.70;;;1.23;;
11827;SDS011;5971;49.646;8.568;2022-09-09T05:35:03;2.55;;;1.45;;
11827;SDS011;5971;49.646;8.568;2022-09-09T05:38:05;3.10;;;0.82;;
11827;SDS011;5971;49.646;8.568;2022-09-09T05:41:06;2.10;;;0.90;;
11827;SDS011;5971;49.646;8.568;2022-09-09T05:44:08;2.53;;;1.42;;
11827;SDS011;5971;49.646;8.568;2022-09-09T05:47:09;2.05;;;1.08;;
11827;SDS011;5971;49.646;8.568;2022-09-09T05:50:10;2.30;;;1.23;;
11827;SDS011;5971;49.646;8.568;2022-09-09T05:53:12;3.60;;;1.20;;
11827;SDS011;5971;49.646;8.568;2022-09-09T05:56:16;4.22;;;1.00;;
11827;SDS011;5971;49.646;8.568;2022-09-09T05:59:18;4.40;;;1.20;;
11827;SDS011;5971;49.646;8.568;2022-09-09T06:02:19;3.13;;;1.10;;
11827;SDS011;5971;49.646;8.568;2022-09-09T06:05:21;3.70;;;0.80;;
11827;SDS011;5971;49.646;8.568;2022-09-09T06:08:23;1.60;;;0.75;;
11827;SDS011;5971;49.646;8.568;2022-09-09T06:11:26;1.63;;;0.90;;
11827;SDS011;5971;49.646;8.568;2022-09-09T06:14:27;2.78;;;1.02;;
11827;SDS011;5971;49.646;8.568;2022-09-09T06:17:29;3.55;;;0.90;;
11827;SDS011;5971;49.646;8.568;2022-09-09T06:20:30;1.35;;;0.70;;
11827;SDS011;5971;49.646;8.568;2022-09-09T06:23:33;2.95;;;0.90;;
11827;SDS011;5971;49.646;8.568;2022-09-09T06:26:38;2.88;;;1.17;;
11827;SDS011;5971;49.646;8.568;2022-09-09T06:29:42;2.30;;;1.30;;
11827;SDS011;5971;49.646;8.568;2022-09-09T06:32:43;3.30;;;1.40;;
11827;SDS011;5971;49.646;8.568;2022-09-09T06:35:50;1.90;;;0.88;;
11827;SDS011;5971;49.646;8.568;2022-09-09T06:38:53;0.82;;;0.50;;
11827;SDS011;5971;49.646;8.568;2022-09-09T06:41:54;1.77;;;1.00;;
11827;SDS011;5971;49.646;8.568;2022-09-09T06:47:59;1.67;;;0.80;;
11827;SDS011;5971;49.646;8.568;2022-09-09T06:54:03;0.75;;;0.47;;
11827;SDS011;5971;49.646;8.568;2022-09-09T06:57:05;1.80;;;0.68;;
11827;SDS011;5971;49.646;8.568;2022-09-09T07:00:28;1.35;;;0.80;;
11827;SDS011;5971;49.646;8.568;2022-09-09T07:03:31;2.78;;;1.33;;
11827;SDS011;5971;49.646;8.568;2022-09-09T07:06:42;1.63;;;0.82;;
11827;SDS011;5971;49.646;8.568;2022-09-09T07:09:44;3.28;;;0.90;;
11827;SDS011;5971;49.646;8.568;2022-09-09T07:12:51;1.75;;;0.85;;
11827;SDS011;5971;49.646;8.568;2022-09-09T07:15:53;4.47;;;0.70;;
11827;SDS011;5971;49.646;8.568;2022-09-09T07:18:55;1.95;;;0.60;;
11827;SDS011;5971;49.646;8.568;2022-09-09T07:21:59;4.70;;;1.02;;
11827;SDS011;5971;49.646;8.568;2022-09-09T07:25:00;2.58;;;0.85;;
11827;SDS011;5971;49.646;8.568;2022-09-09T07:28:03;2.92;;;1.15;;
11827;SDS011;5971;49.646;8.568;2022-09-09T07:31:04;2.38;;;1.00;;
11827;SDS011;5971;49.646;8.568;2022-09-09T07:34:06;1.77;;;0.82;;
11827;SDS011;5971;49.646;8.568;2022-09-09T07:37:08;1.77;;;0.80;;
11827;SDS011;5971;49.646;8.568;2022-09-09T07:40:12;3.53;;;0.85;;
11827;SDS011;5971;49.646;8.568;2022-09-09T07:43:14;3.22;;;1.20;;
11827;SDS011;5971;49.646;8.568;2022-09-09T07:46:18;2.22;;;0.90;;
11827;SDS011;5971;49.646;8.568;2022-09-09T07:49:20;1.95;;;0.90;;
11827;SDS011;5971;49.646;8.568;2022-09-09T07:52:31;2.05;;;1.08;;
11827;SDS011;5971;49.646;8.568;2022-09-09T07:55:32;2.60;;;0.88;;
11827;SDS011;5971;49.646;8.568;2022-09-09T07:58:33;2.15;;;0.80;;
11827;SDS011;5971;49.646;8.568;2022-09-09T08:01:43;2.28;;;1.60;;
11827;SDS011;5971;49.646;8.568;2022-09-09T08:04:44;3.75;;;1.48;;
11827;SDS011;5971;49.646;8.568;2022-09-09T08:07:46;2.78;;;0.93;;
11827;SDS011;5971;49.646;8.568;2022-09-09T08:10:48;2.22;;;0.93;;
11827;SDS011;5971;49.646;8.568;2022-09-09T08:13:49;2.40;;;0.82;;
11827;SDS011;5971;49.646;8.568;2022-09-09T08:16:55;3.00;;;1.00;;
11827;SDS011;5971;49.646;8.568;2022-09-09T08:19:57;5.05;;;1.10;;
11827;SDS011;5971;49.646;8.568;2022-09-09T08:22:58;1.63;;;0.90;;
11827;SDS011;5971;49.646;8.568;2022-09-09T08:26:03;4.35;;;0.85;;
11827;SDS011;5971;49.646;8.568;2022-09-09T08:29:06;3.42;;;1.17;;
11827;SDS011;5971;49.646;8.568;2022-09-09T08:32:07;2.53;;;0.98;;
11827;SDS011;5971;49.646;8.568;2022-09-09T08:35:09;2.22;;;0.77;;
11827;SDS011;5971;49.646;8.568;2022-09-09T08:38:11;2.92;;;1.10;;
11827;SDS011;5971;49.646;8.568;2022-09-09T08:50:41;2.97;;;1.10;;
11827;SDS011;5971;49.646;8.568;2022-09-09T08:53:45;2.10;;;0.80;;
11827;SDS011;5971;49.646;8.568;2022-09-09T08:56:47;1.77;;;0.73;;
11827;SDS011;5971;49.646;8.568;2022-09-09T08:59:49;2.20;;;0.70;;
11827;SDS011;5971;49.646;8.568;2022-09-09T09:02:58;2.25;;;0.73;;
11827;SDS011;5971;49.646;8.568;2022-09-09T09:06:06;2.53;;;0.90;;
11827;SDS011;5971;49.646;8.568;2022-09-09T09:12:35;1.27;;;0.82;;
11827;SDS011;5971;49.646;8.568;2022-09-09T09:15:39;4.30;;;0.85;;
11827;SDS011;5971;49.646;8.568;2022-09-09T09:18:42;2.00;;;0.70;;
11827;SDS011;5971;49.646;8.568;2022-09-09T09:21:45;2.55;;;0.70;;
11827;SDS011;5971;49.646;8.568;2022-09-09T09:24:50;1.60;;;0.98;;
11827;SDS011;5971;49.646;8.568;2022-09-09T09:30:58;3.38;;;0.88;;
11827;SDS011;5971;49.646;8.568;2022-09-09T09:34:02;2.20;;;0.63;;
11827;SDS011;5971;49.646;8.568;2022-09-09T09:37:07;2.45;;;0.93;;
11827;SDS011;5971;49.646;8.568;2022-09-09T09:40:17;2.25;;;0.77;;
11827;SDS011;5971;49.646;8.568;2022-09-09T09:43:20;2.60;;;0.93;;
11827;SDS011;5971;49.646;8.568;2022-09-09T09:46:23;3.08;;;0.90;;
11827;SDS011;5971;49.646;8.568;2022-09-09T09:49:25;2.50;;;0.63;;
11827;SDS011;5971;49.646;8.568;2022-09-09T09:52:27;1.88;;;0.70;;
11827;SDS011;5971;49.646;8.568;2022-09-09T09:55:30;3.00;;;1.38;;
11827;SDS011;5971;49.646;8.568;2022-09-09T10:01:45;2.13;;;0.77;;
11827;SDS011;5971;49.646;8.568;2022-09-09T10:04:47;3.58;;;0.90;;
11827;SDS011;5971;49.646;8.568;2022-09-09T10:08:05;2.47;;;0.75;;
11827;SDS011;5971;49.646;8.568;2022-09-09T10:11:30;1.92;;;0.77;;
11827;SDS011;5971;49.646;8.568;2022-09-09T10:14:40;2.28;;;0.82;;
11827;SDS011;5971;49.646;8.568;2022-09-09T10:24:12;2.25;;;0.90;;
11827;SDS011;5971;49.646;8.568;2022-09-09T10:27:21;1.58;;;0.70;;
11827;SDS011;5971;49.646;8.568;2022-09-09T10:30:28;3.20;;;1.13;;
11827;SDS011;5971;49.646;8.568;2022-09-09T10:34:10;1.20;;;0.60;;
11827;SDS011;5971;49.646;8.568;2022-09-09T10:37:03;1.27;;;0.65;;
11827;SDS011;5971;49.646;8.568;2022-09-09T10:40:28;2.08;;;0.73;;
11827;SDS011;5971;49.646;8.568;2022-09-09T10:53:08;1.45;;;0.63;;
11827;SDS011;5971;49.646;8.568;2022-09-09T10:56:15;1.45;;;0.95;;
11827;SDS011;5971;49.646;8.568;2022-09-09T10:59:18;1.48;;;0.50;;
11827;SDS011;5971;49.646;8.568;2022-09-09T11:02:27;1.77;;;0.60;;
11827;SDS011;5971;49.646;8.568;2022-09-09T11:05:45;3.75;;;0.80;;
11827;SDS011;5971;49.646;8.568;2022-09-09T11:08:48;2.38;;;1.00;;
11827;SDS011;5971;49.646;8.568;2022-09-09T11:11:56;2.17;;;0.80;;
11827;SDS011;5971;49.646;8.568;2022-09-09T11:14:59;2.00;;;0.60;;
11827;SDS011;5971;49.646;8.568;2022-09-09T11:18:03;2.20;;;1.10;;
11827;SDS011;5971;49.646;8.568;2022-09-09T11:21:06;1.95;;;0.70;;
11827;SDS011;5971;49.646;8.568;2022-09-09T11:24:18;3.58;;;0.80;;
11827;SDS011;5971;49.646;8.568;2022-09-09T11:27:36;1.52;;;0.80;;
11827;SDS011;5971;49.646;8.568;2022-09-09T11:40:25;1.38;;;0.77;;
11827;SDS011;5971;49.646;8.568;2022-09-09T11:43:29;1.95;;;0.70;;
11827;SDS011;5971;49.646;8.568;2022-09-09T11:46:33;1.95;;;0.93;;
11827;SDS011;5971;49.646;8.568;2022-09-09T11:52:43;1.50;;;1.05;;
11827;SDS011;5971;49.646;8.568;2022-09-09T11:59:24;3.28;;;1.10;;
11827;SDS011;5971;49.646;8.568;2022-09-09T12:02:27;1.75;;;0.90;;
11827;SDS011;5971;49.646;8.568;2022-09-09T12:05:39;0.75;;;0.60;;
11827;SDS011;5971;49.646;8.568;2022-09-09T12:08:43;2.95;;;0.80;;
11827;SDS011;5971;49.646;8.568;2022-09-09T12:11:46;1.50;;;0.70;;
11827;SDS011;5971;49.646;8.568;2022-09-09T12:18:14;2.92;;;0.90;;
11827;SDS011;5971;49.646;8.568;2022-09-09T12:21:27;1.35;;;0.60;;
11827;SDS011;5971;49.646;8.568;2022-09-09T12:24:36;2.85;;;0.70;;
11827;SDS011;5971;49.646;8.568;2022-09-09T12:27:42;1.48;;;0.57;;
11827;SDS011;5971;49.646;8.568;2022-09-09T12:30:52;1.38;;;0.60;;
11827;SDS011;5971;49.646;8.568;2022-09-09T12:34:02;2.03;;;0.85;;
11827;SDS011;5971;49.646;8.568;2022-09-09T12:43:19;1.92;;;0.80;;
11827;SDS011;5971;49.646;8.568;2022-09-09T12:49:43;2.78;;;0.80;;
11827;SDS011;5971;49.646;8.568;2022-09-09T12:52:44;2.55;;;0.80;;
11827;SDS011;5971;49.646;8.568;2022-09-09T12:55:56;2.58;;;1.10;;
11827;SDS011;5971;49.646;8.568;2022-09-09T12:58:57;1.45;;;0.65;;
11827;SDS011;5971;49.646;8.568;2022-09-09T13:01:59;0.93;;;0.60;;
11827;SDS011;5971;49.646;8.568;2022-09-09T13:05:14;1.35;;;0.60;;
11827;SDS011;5971;49.646;8.568;2022-09-09T13:08:17;1.38;;;0.57;;
11827;SDS011;5971;49.646;8.568;2022-09-09T13:11:31;1.42;;;0.50;;
11827;SDS011;5971;49.646;8.568;2022-09-09T13:14:36;1.08;;;0.47;;
11827;SDS011;5971;49.646;8.568;2022-09-09T13:17:40;1.15;;;0.50;;
11827;SDS011;5971;49.646;8.568;2022-09-09T13:20:45;2.17;;;0.75;;
11827;SDS011;5971;49.646;8.568;2022-09-09T13:23:50;1.15;;;0.65;;
11827;SDS011;5971;49.646;8.568;2022-09-09T13:27:36;0.90;;;0.60;;
11827;SDS011;5971;49.646;8.568;2022-09-09T13:30:19;0.73;;;0.40;;
11827;SDS011;5971;49.646;8.568;2022-09-09T13:33:23;1.75;;;0.60;;
11827;SDS011;5971;49.646;8.568;2022-09-09T13:36:30;1.60;;;0.70;;
11827;SDS011;5971;49.646;8.568;2022-09-09T13:39:33;3.08;;;0.93;;
11827;SDS011;5971;49.646;8.568;2022-09-09T13:42:37;1.77;;;1.13;;
11827;SDS011;5971;49.646;8.568;2022-09-09T13:45:39;1.60;;;0.65;;
11827;SDS011;5971;49.646;8.568;2022-09-09T13:48:40;1.52;;;0.75;;
11827;SDS011;5971;49.646;8.568;2022-09-09T13:51:43;2.08;;;0.77;;
11827;SDS011;5971;49.646;8.568;2022-09-09T13:54:51;1.30;;;0.93;;
11827;SDS011;5971;49.646;8.568;2022-09-09T13:57:56;1.55;;;0.70;;
11827;SDS011;5971;49.646;8.568;2022-09-09T14:00:58;1.10;;;0.60;;
11827;SDS011;5971;49.646;8.568;2022-09-09T14:03:59;1.45;;;0.60;;
11827;SDS011;5971;49.646;8.568;2022-09-09T14:07:00;1.90;;;0.60;;
11827;SDS011;5971;49.646;8.568;2022-09-09T14:10:02;0.73;;;0.60;;
11827;SDS011;5971;49.646;8.568;2022-09-09T14:13:03;1.63;;;0.50;;
11827;SDS011;5971;49.646;8.568;2022-09-09T14:16:04;1.52;;;0.55;;
11827;SDS011;5971;49.646;8.568;2022-09-09T14:19:07;0.85;;;0.50;;
11827;SDS011;5971;49.646;8.568;2022-09-09T14:22:08;0.63;;;0.40;;
11827;SDS011;5971;49.646;8.568;2022-09-09T14:25:10;1.27;;;0.60;;
11827;SDS011;5971;49.646;8.568;2022-09-09T14:28:12;0.70;;;0.50;;
11827;SDS011;5971;49.646;8.568;2022-09-09T14:31:14;2.05;;;0.90;;
11827;SDS011;5971;49.646;8.568;2022-09-09T14:34:16;0.55;;;0.32;;
11827;SDS011;5971;49.646;8.568;2022-09-09T14:37:17;1.33;;;0.60;;
11827;SDS011;5971;49.646;8.568;2022-09-09T14:40:18;1.15;;;0.63;;
11827;SDS011;5971;49.646;8.568;2022-09-09T14:43:20;1.45;;;0.60;;
11827;SDS011;5971;49.646;8.568;2022-09-09T14:46:21;1.88;;;0.57;;
11827;SDS011;5971;49.646;8.568;2022-09-09T14:49:23;1.83;;;0.70;;
11827;SDS011;5971;49.646;8.568;2022-09-09T14:52:24;1.75;;;0.60;;
11827;SDS011;5971;49.646;8.568;2022-09-09T14:55:26;1.48;;;0.60;;
11827;SDS011;5971;49.646;8.568;2022-09-09T14:58:30;3.40;;;0.98;;
11827;SDS011;5971;49.646;8.568;2022-09-09T15:01:32;2.25;;;1.40;;
11827;SDS011;5971;49.646;8.568;2022-09-09T15:04:35;2.85;;;0.73;;
11827;SDS011;5971;49.646;8.568;2022-09-09T15:07:36;1.98;;;1.02;;
11827;SDS011;5971;49.646;8.568;2022-09-09T15:10:38;2.17;;;1.00;;
11827;SDS011;5971;49.646;8.568;2022-09-09T15:13:40;1.85;;;0.88;;
11827;SDS011;5971;49.646;8.568;2022-09-09T15:16:42;1.77;;;0.82;;
11827;SDS011;5971;49.646;8.568;2022-09-09T15:19:43;1.65;;;0.80;;
11827;SDS011;5971;49.646;8.568;2022-09-09T15:22:44;3.92;;;1.05;;
11827;SDS011;5971;49.646;8.568;2022-09-09T15:25:52;1.52;;;0.82;;
11827;SDS011;5971;49.646;8.568;2022-09-09T15:28:54;1.80;;;0.65;;
11827;SDS011;5971;49.646;8.568;2022-09-09T15:31:55;1.38;;;0.60;;
11827;SDS011;5971;49.646;8.568;2022-09-09T15:34:57;1.80;;;0.80;;
11827;SDS011;5971;49.646;8.568;2022-09-09T15:38:01;2.33;;;0.98;;
11827;SDS011;5971;49.646;8.568;2022-09-09T15:41:02;1.92;;;0.82;;
11827;SDS011;5971;49.646;8.568;2022-09-09T15:44:03;2.13;;;0.70;;
11827;SDS011;5971;49.646;8.568;2022-09-09T15:47:05;1.80;;;0.60;;
11827;SDS011;5971;49.646;8.568;2022-09-09T15:50:06;1.50;;;0.70;;
11827;SDS011;5971;49.646;8.568;2022-09-09T15:53:07;1.48;;;1.13;;
11827;SDS011;5971;49.646;8.568;2022-09-09T15:56:09;2.20;;;0.73;;
11827;SDS011;5971;49.646;8.568;2022-09-09T15:59:10;2.55;;;1.05;;
11827;SDS011;5971;49.646;8.568;2022-09-09T16:02:12;2.70;;;1.30;;
11827;SDS011;5971;49.646;8.568;2022-09-09T16:05:13;2.50;;;1.13;;
11827;SDS011;5971;49.646;8.568;2022-09-09T16:08:15;1.40;;;0.80;;
11827;SDS011;5971;49.646;8.568;2022-09-09T16:11:17;3.25;;;0.90;;
11827;SDS011;5971;49.646;8.568;2022-09-09T16:14:20;1.63;;;0.70;;
11827;SDS011;5971;49.646;8.568;2022-09-09T16:17:22;1.17;;;0.52;;
11827;SDS011;5971;49.646;8.568;2022-09-09T16:20:24;2.25;;;0.90;;
11827;SDS011;5971;49.646;8.568;2022-09-09T16:23:26;3.25;;;1.42;;
11827;SDS011;5971;49.646;8.568;2022-09-09T16:26:28;2.10;;;0.90;;
11827;SDS011;5971;49.646;8.568;2022-09-09T16:29:30;2.50;;;0.90;;
11827;SDS011;5971;49.646;8.568;2022-09-09T16:32:31;1.50;;;1.27;;
11827;SDS011;5971;49.646;8.568;2022-09-09T16:35:35;1.38;;;0.60;;
11827;SDS011;5971;49.646;8.568;2022-09-09T16:38:37;1.80;;;0.90;;
11827;SDS011;5971;49.646;8.568;2022-09-09T16:41:39;1.58;;;0.80;;
11827;SDS011;5971;49.646;8.568;2022-09-09T16:44:40;2.95;;;0.70;;
11827;SDS011;5971;49.646;8.568;2022-09-09T16:47:42;1.73;;;0.80;;
11827;SDS011;5971;49.646;8.568;2022-09-09T16:50:44;3.25;;;1.10;;
11827;SDS011;5971;49.646;8.568;2022-09-09T16:53:45;1.75;;;0.80;;
11827;SDS011;5971;49.646;8.568;2022-09-09T16:56:47;1.75;;;0.82;;
11827;SDS011;5971;49.646;8.568;2022-09-09T16:59:49;1.95;;;0.98;;
11827;SDS011;5971;49.646;8.568;2022-09-09T17:02:51;2.47;;;1.15;;
11827;SDS011;5971;49.646;8.568;2022-09-09T17:05:52;4.63;;;0.90;;
11827;SDS011;5971;49.646;8.568;2022-09-09T17:08:54;2.55;;;0.85;;
11827;SDS011;5971;49.646;8.568;2022-09-09T17:11:56;2.33;;;0.93;;
11827;SDS011;5971;49.646;8.568;2022-09-09T17:14:57;1.52;;;1.13;;
11827;SDS011;5971;49.646;8.568;2022-09-09T17:18:00;2.45;;;1.05;;
11827;SDS011;5971;49.646;8.568;2022-09-09T17:21:04;1.02;;;0.63;;
11827;SDS011;5971;49.646;8.568;2022-09-09T17:24:07;1.63;;;0.65;;
11827;SDS011;5971;49.646;8.568;2022-09-09T17:27:09;3.83;;;1.17;;
11827;SDS011;5971;49.646;8.568;2022-09-09T17:30:10;2.05;;;0.95;;
11827;SDS011;5971;49.646;8.568;2022-09-09T17:33:12;2.03;;;0.73;;
11827;SDS011;5971;49.646;8.568;2022-09-09T17:36:15;1.83;;;0.80;;
11827;SDS011;5971;49.646;8.568;2022-09-09T17:39:16;2.97;;;1.00;;
11827;SDS011;5971;49.646;8.568;2022-09-09T17:42:17;4.20;;;0.90;;
11827;SDS011;5971;49.646;8.568;2022-09-09T17:45:19;1.85;;;0.90;;
11827;SDS011;5971;49.646;8.568;2022-09-09T17:48:20;2.00;;;0.75;;
11827;SDS011;5971;49.646;8.568;2022-09-09T17:51:22;1.58;;;0.77;;
11827;SDS011;5971;49.646;8.568;2022-09-09T17:54:28;1.98;;;0.80;;
11827;SDS011;5971;49.646;8.568;2022-09-09T17:57:30;1.10;;;0.70;;
11827;SDS011;5971;49.646;8.568;2022-09-09T18:00:32;1.95;;;0.90;;
11827;SDS011;5971;49.646;8.568;2022-09-09T18:03:34;1.23;;;0.80;;
11827;SDS011;5971;49.646;8.568;2022-09-09T18:06:36;2.40;;;1.35;;
11827;SDS011;5971;49.646;8.568;2022-09-09T18:09:38;1.10;;;0.70;;
11827;SDS011;5971;49.646;8.568;2022-09-09T18:12:39;2.40;;;0.90;;
11827;SDS011;5971;49.646;8.568;2022-09-09T18:15:42;2.33;;;0.93;;
11827;SDS011;5971;49.646;8.568;2022-09-09T18:18:50;1.92;;;0.60;;
11827;SDS011;5971;49.646;8.568;2022-09-09T18:21:52;2.30;;;0.90;;
11827;SDS011;5971;49.646;8.568;2022-09-09T18:24:55;1.60;;;0.80;;
11827;SDS011;5971;49.646;8.568;2022-09-09T18:27:56;1.95;;;0.90;;
11827;SDS011;5971;49.646;8.568;2022-09-09T18:30:58;1.83;;;0.80;;
11827;SDS011;5971;49.646;8.568;2022-09-09T18:34:00;3.05;;;0.90;;
11827;SDS011;5971;49.646;8.568;2022-09-09T18:37:02;1.85;;;1.15;;
11827;SDS011;5971;49.646;8.568;2022-09-09T18:40:04;1.45;;;0.68;;
11827;SDS011;5971;49.646;8.568;2022-09-09T18:43:06;1.10;;;0.68;;
11827;SDS011;5971;49.646;8.568;2022-09-09T18:46:08;1.10;;;0.60;;
11827;SDS011;5971;49.646;8.568;2022-09-09T18:49:10;1.55;;;0.63;;
11827;SDS011;5971;49.646;8.568;2022-09-09T18:52:11;1.83;;;1.20;;
11827;SDS011;5971;49.646;8.568;2022-09-09T18:55:13;1.80;;;0.70;;
11827;SDS011;5971;49.646;8.568;2022-09-09T18:58:14;1.35;;;0.63;;
11827;SDS011;5971;49.646;8.568;2022-09-09T19:01:15;2.28;;;0.70;;
11827;SDS011;5971;49.646;8.568;2022-09-09T19:04:17;2.08;;;1.27;;
11827;SDS011;5971;49.646;8.568;2022-09-09T19:07:19;3.13;;;1.10;;
11827;SDS011;5971;49.646;8.568;2022-09-09T19:10:21;1.23;;;0.80;;
11827;SDS011;5971;49.646;8.568;2022-09-09T19:13:23;1.38;;;0.77;;
11827;SDS011;5971;49.646;8.568;2022-09-09T19:16:25;3.17;;;1.10;;
11827;SDS011;5971;49.646;8.568;2022-09-09T19:19:30;1.52;;;0.80;;
11827;SDS011;5971;49.646;8.568;2022-09-09T19:22:32;2.47;;;1.15;;
11827;SDS011;5971;49.646;8.568;2022-09-09T19:25:36;2.47;;;0.93;;
11827;SDS011;5971;49.646;8.568;2022-09-09T19:28:38;2.47;;;1.38;;
11827;SDS011;5971;49.646;8.568;2022-09-09T19:31:40;2.05;;;1.10;;
11827;SDS011;5971;49.646;8.568;2022-09-09T19:35:02;1.83;;;0.73;;
11827;SDS011;5971;49.646;8.568;2022-09-09T19:38:04;1.25;;;0.75;;
11827;SDS011;5971;49.646;8.568;2022-09-09T19:41:06;1.88;;;1.10;;
11827;SDS011;5971;49.646;8.568;2022-09-09T19:44:09;3.22;;;1.10;;
11827;SDS011;5971;49.646;8.568;2022-09-09T19:47:12;2.10;;;1.20;;
11827;SDS011;5971;49.646;8.568;2022-09-09T19:50:14;2.60;;;1.02;;
11827;SDS011;5971;49.646;8.568;2022-09-09T19:53:16;2.42;;;1.00;;
11827;SDS011;5971;49.646;8.568;2022-09-09T19:56:18;2.42;;;0.90;;
11827;SDS011;5971;49.646;8.568;2022-09-09T19:59:19;3.05;;;0.95;;
11827;SDS011;5971;49.646;8.568;2022-09-09T20:02:21;1.88;;;0.90;;
11827;SDS011;5971;49.646;8.568;2022-09-09T20:05:22;2.63;;;1.23;;
11827;SDS011;5971;49.646;8.568;2022-09-09T20:08:23;2.78;;;1.10;;
11827;SDS011;5971;49.646;8.568;2022-09-09T20:11:27;6.32;;;1.17;;
11827;SDS011;5971;49.646;8.568;2022-09-09T20:14:28;3.40;;;1.23;;
11827;SDS011;5971;49.646;8.568;2022-09-09T20:17:29;1.85;;;1.35;;
11827;SDS011;5971;49.646;8.568;2022-09-09T20:20:31;5.45;;;1.63;;
11827;SDS011;5971;49.646;8.568;2022-09-09T20:23:32;2.47;;;0.95;;
11827;SDS011;5971;49.646;8.568;2022-09-09T20:26:34;3.47;;;1.13;;
11827;SDS011;5971;49.646;8.568;2022-09-09T20:29:37;2.53;;;1.10;;
11827;SDS011;5971;49.646;8.568;2022-09-09T20:32:39;4.53;;;1.23;;
11827;SDS011;5971;49.646;8.568;2022-09-09T20:35:40;2.10;;;1.00;;
11827;SDS011;5971;49.646;8.568;2022-09-09T20:38:46;2.70;;;1.95;;